Aérodrome :
LOGIN :

S'inscrire | Disclaimer

   EN    FR    IT 

 










Légende :    VFR   VFR Marginal   IFR   IFR Intensif   IFR Très Intensif
Visi : 
Plafond : 
>= 8 km
>= 3000ft
5 à 8 km
1000 à 3000 ft
1500m à 5 km
500 à 1000 ft
800 à 1500m
200 à 500 ft
< 800m
< 200 ft
Symboles :   Orages  Brouillard  Fortes neiges  Fortes précipitations  Vent > 20 kt
SIGMETs :   Divers  Orages  Givrage  Turbulence  Onde Orograph.  Cendres Volcan.






- Altitude de l'aérodrome : 117 ft
- Code IATA : NWI


EGSH - Norwich

DERNIER METAR :
  • 051920Z 22018KT CAVOK 08/05 Q1010

METARs EXPIRÉS :
  • 051850Z 22017KT CAVOK 08/05 Q1011 NOSIG
  • 051820Z 22016KT CAVOK 08/04 Q1011 NOSIG
  • 051750Z 22015KT CAVOK 07/05 Q1011
  • 051720Z 21017KT CAVOK 07/04 Q1012
  • 051650Z 21014KT CAVOK 07/04 Q1012 NOSIG

TAF TAF EGSH
Valide du 05 à 18h jusqu'au 06 à 00h UTC


051704Z 0518/0524 21014KT 9999 FEW020
TEMPO 0518/0524 8000 -RADZ BKN010
PROB30
TEMPO 0518/0524 4000 RADZ BR BKN006
ATIS : +44 1603 420 640



MET'MAP, la Météo Aéronautique d'un coup d'oeil ! - Copyright ORBIFLY Décembre 2007 - Disclaimer

ORBIFLY MET'MAP TEAM :

Programmation & Développement : Alexandra Zaïnal
Sur une idée originale de : Baudouin d'Aumeries
Assistance à la programmation : Marc-Olivier Méhu
Soutien technique & logistique : Manuel Goepfert

Contact : metmap@orbifly.com




SOURCES & CREDITS :

   NOAA